Time;durP1;ratioP1;P1;durP2;ratioP2;P2;SDS_P1;SDS_P2;PMS_P1;PMS_P2;Temp;Humidity;BMP_temperature;BMP_pressure;BME280_temperature;BME280_humidity;BME280_pressure;Samples;Min_cycle;Max_cycle;Signal;HPM_P1;HPM_P2
2022/09/12 00:02:21;;;;;;;;;14.25;9.25;;;;;18.51;66.52;101185.06;5077169;27;46397;-47
2022/09/12 00:04:46;;;;;;;;;12.25;10.75;;;;;18.49;66.29;101181.72;5077473;27;45468;-53
2022/09/12 00:07:12;;;;;;;;;14.00;13.75;;;;;18.44;66.34;101182.28;5077665;28;45476;-50
2022/09/12 00:09:38;;;;;;;;;11.00;11.00;;;;;18.43;66.45;101186.00;5077678;27;45378;-50
2022/09/12 00:12:03;;;;;;;;;18.00;12.50;;;;;18.44;66.10;101184.16;5077279;27;45403;-47
2022/09/12 00:14:29;;;;;;;;;14.00;12.25;;;;;18.43;66.63;101182.47;5075922;28;45391;-53
2022/09/12 00:16:58;;;;;;;;;9.25;9.00;;;;;18.39;66.49;101176.63;5077578;27;45421;-50
2022/09/12 00:19:24;;;;;;;;;10.75;9.75;;;;;18.39;66.38;101171.25;5077784;27;45315;-49
2022/09/12 00:21:50;;;;;;;;;13.25;11.00;;;;;18.42;66.25;101172.75;5077083;27;45453;-48
2022/09/12 00:24:15;;;;;;;;;16.25;11.25;;;;;18.41;66.16;101169.22;5077191;27;45346;-49
2022/09/12 00:26:41;;;;;;;;;15.00;11.75;;;;;18.41;66.55;101158.44;5077145;27;45213;-51
2022/09/12 00:29:06;;;;;;;;;10.50;9.75;;;;;18.36;66.58;101157.31;5077297;27;45465;-48
2022/09/12 00:31:31;;;;;;;;;13.50;11.75;;;;;18.30;66.47;101142.75;5077130;27;47107;-49
2022/09/12 00:33:59;;;;;;;;;9.75;7.75;;;;;18.40;66.48;101156.75;5077086;27;45505;-51
2022/09/12 00:36:27;;;;;;;;;9.25;8.75;;;;;18.39;66.11;101160.47;5076983;27;45277;-48
2022/09/12 00:38:53;;;;;;;;;15.00;14.25;;;;;18.40;66.37;101158.59;5077120;27;45354;-52
2022/09/12 00:41:31;;;;;;;;;11.00;9.75;;;;;18.39;66.51;101151.56;5075357;28;46142;-53
2022/09/12 00:44:03;;;;;;;;;12.75;10.00;;;;;18.37;66.33;101150.88;5076676;27;45389;-52
2022/09/12 00:46:44;;;;;;;;;10.75;10.75;;;;;18.29;66.29;101142.94;5076926;27;45495;-54
2022/09/12 00:49:25;;;;;;;;;16.00;10.00;;;;;18.32;66.36;101143.38;5077253;27;45339;-52
2022/09/12 00:51:58;;;;;;;;;9.25;8.25;;;;;18.28;66.87;101134.00;5076837;27;45386;-46
2022/09/12 00:54:29;;;;;;;;;9.50;9.50;;;;;18.28;66.34;101134.00;5076751;27;45213;-49
2022/09/12 00:56:59;;;;;;;;;15.00;12.00;;;;;18.26;66.40;101136.06;5076962;27;45449;-48
2022/09/12 00:59:30;;;;;;;;;7.00;6.75;;;;;18.27;66.26;101126.94;5080615;27;45575;-50
2022/09/12 01:01:56;;;;;;;;;11.25;9.75;;;;;18.22;66.67;101118.59;5080252;27;45989;-49
2022/09/12 01:04:23;;;;;;;;;11.75;11.50;;;;;18.23;66.76;101120.28;5080356;27;45322;-50
2022/09/12 01:06:50;;;;;;;;;12.25;11.50;;;;;18.23;66.25;101127.53;5080449;27;45648;-50
2022/09/12 01:09:19;;;;;;;;;9.25;9.25;;;;;18.19;66.99;101127.88;5080430;27;45424;-48
2022/09/12 01:11:47;;;;;;;;;9.25;9.25;;;;;18.06;66.84;101106.19;5080183;28;45341;-49
2022/09/12 01:14:14;;;;;;;;;12.50;11.00;;;;;18.15;67.06;101133.84;5079966;27;45393;-50
2022/09/12 01:16:39;;;;;;;;;16.00;10.00;;;;;18.08;66.91;101109.53;5080281;27;45297;-49
2022/09/12 01:19:11;;;;;;;;;9.75;8.00;;;;;18.13;67.12;101127.81;5080543;28;45341;-49
2022/09/12 01:22:04;;;;;;;;;12.50;11.25;;;;;18.11;67.13;101119.06;5079918;27;47167;-50
2022/09/12 01:24:57;;;;;;;;;11.75;9.50;;;;;18.11;66.61;101119.06;5079827;27;45298;-48
2022/09/12 01:27:55;;;;;;;;;11.50;9.25;;;;;18.09;66.62;101113.06;5079863;27;45287;-50
2022/09/12 01:30:23;;;;;;;;;10.25;9.00;;;;;18.08;67.40;101112.22;5080220;27;45301;-50
2022/09/12 01:32:49;;;;;;;;;14.00;10.25;;;;;18.07;67.21;101107.84;5079558;27;46156;-50
2022/09/12 01:35:36;;;;;;;;;9.50;8.25;;;;;18.09;67.03;101102.28;5079857;28;45440;-48
2022/09/12 01:38:16;;;;;;;;;13.25;10.25;;;;;18.05;67.14;101098.28;5080059;28;45317;-47
2022/09/12 01:41:01;;;;;;;;;11.00;9.50;;;;;18.06;66.69;101097.25;5079841;27;45396;-49
2022/09/12 01:44:14;;;;;;;;;12.75;11.00;;;;;18.04;66.89;101094.78;5079533;27;46325;-50
2022/09/12 01:46:57;;;;;;;;;10.75;10.00;;;;;18.04;67.21;101092.09;5017109;28;45207;-52
2022/09/12 01:49:31;;;;;;;;;11.75;9.50;;;;;18.01;66.89;101097.84;5017225;28;45341;-48
2022/09/12 01:52:24;;;;;;;;;8.25;8.25;;;;;17.98;67.22;101098.19;5017370;28;45363;-48
2022/09/12 01:54:56;;;;;;;;;14.25;8.50;;;;;17.94;67.04;101095.03;5016815;28;46285;-51
2022/09/12 01:57:31;;;;;;;;;10.75;7.50;;;;;17.88;67.62;101087.72;5017027;28;45490;-50
2022/09/12 02:00:03;;;;;;;;;13.00;12.50;;;;;17.90;67.13;101090.22;5016945;28;45368;-47
2022/09/12 02:02:35;;;;;;;;;9.50;9.50;;;;;17.90;67.41;101095.59;5016985;28;45404;-45
2022/09/12 02:05:08;;;;;;;;;9.50;7.25;;;;;17.82;67.71;101083.06;5016857;28;46226;-49
2022/09/12 02:07:42;;;;;;;;;10.00;9.00;;;;;17.87;67.07;101087.91;5016776;28;45429;-50
2022/09/12 02:10:13;;;;;;;;;9.00;8.25;;;;;17.87;67.27;101087.91;5016570;28;45387;-47
2022/09/12 02:12:55;;;;;;;;;10.75;8.75;;;;;17.82;67.33;101090.31;5016886;28;45440;-54
2022/09/12 02:15:25;;;;;;;;;9.75;9.00;;;;;17.80;67.64;101093.19;5016738;28;46016;-47
2022/09/12 02:17:52;;;;;;;;;13.00;10.75;;;;;17.83;67.74;101094.69;5016506;28;45364;-54
2022/09/12 02:20:34;;;;;;;;;11.00;9.50;;;;;17.77;67.53;101084.66;5000151;28;45448;-46
2022/09/12 02:23:03;;;;;;;;;12.00;8.50;;;;;17.77;67.59;101084.66;5072696;27;45401;-48
2022/09/12 02:25:29;;;;;;;;;11.50;8.50;;;;;17.78;67.78;101081.78;5078980;27;45563;-49
2022/09/12 02:28:05;;;;;;;;;9.00;8.25;;;;;17.71;67.20;101070.91;5078935;27;45235;-52
2022/09/12 02:30:41;;;;;;;;;8.75;7.75;;;;;17.74;67.73;101079.59;5079192;27;45293;-48
2022/09/12 02:33:53;;;;;;;;;10.00;10.00;;;;;17.73;67.70;101072.56;5079101;27;45263;-47
2022/09/12 02:36:38;;;;;;;;;13.25;8.00;;;;;17.70;67.54;101069.22;4993483;28;46198;-46
2022/09/12 02:39:03;;;;;;;;;8.50;8.00;;;;;17.69;67.25;101072.09;5016132;28;45565;-49
2022/09/12 02:41:29;;;;;;;;;12.25;10.25;;;;;17.67;68.10;101074.97;5016300;28;45362;-51
2022/09/12 02:43:54;;;;;;;;;13.25;9.00;;;;;17.57;68.09;101060.13;5016581;28;45624;-49
2022/09/12 02:46:43;;;;;;;;;15.75;12.75;;;;;17.63;68.27;101068.28;5016109;28;47584;-48
2022/09/12 02:49:08;;;;;;;;;10.00;7.75;;;;;17.62;68.32;101058.56;5015166;28;45438;-48
2022/09/12 02:51:34;;;;;;;;;10.50;10.50;;;;;17.61;67.94;101053.34;5016145;28;45392;-48
2022/09/12 02:54:01;;;;;;;;;9.00;8.00;;;;;17.59;68.23;101056.22;5016347;28;45333;-49
2022/09/12 02:56:29;;;;;;;;;9.00;9.00;;;;;17.58;68.29;101049.19;5016135;28;46374;-47
2022/09/12 02:59:01;;;;;;;;;8.00;8.00;;;;;17.57;68.39;101050.22;5015894;28;45495;-52
2022/09/12 03:01:26;;;;;;;;;13.00;9.00;;;;;17.55;68.62;101046.03;5016123;28;45385;-47
2022/09/12 03:04:22;;;;;;;;;12.00;9.33;;;;;17.53;68.59;101043.53;5016169;28;45273;-50
2022/09/12 03:07:21;;;;;;;;;13.75;8.75;;;;;17.51;68.40;101042.88;5015422;28;46550;-49
2022/09/12 03:10:07;;;;;;;;;12.67;10.00;;;;;17.49;68.66;101042.22;5015816;28;45456;-52
2022/09/12 03:12:35;;;;;;;;;9.33;8.00;;;;;17.46;68.57;101040.75;5035421;28;45412;-48
2022/09/12 03:15:19;;;;;;;;;12.25;11.25;;;;;17.42;68.50;101034.06;5078468;27;45441;-49
2022/09/12 03:17:56;;;;;;;;;12.33;10.33;;;;;17.43;69.09;101037.56;5078120;27;46301;-49
2022/09/12 03:20:31;;;;;;;;;14.67;13.33;;;;;17.39;69.23;101037.09;5077342;27;45433;-49
2022/09/12 03:23:18;;;;;;;;;8.67;8.67;;;;;17.36;68.68;101029.44;5076954;28;45492;-48
2022/09/12 03:25:51;;;;;;;;;12.00;9.33;;;;;17.37;69.14;101035.63;5078374;27;45311;-48
2022/09/12 03:28:20;;;;;;;;;13.00;9.33;;;;;17.33;69.41;101026.25;5077113;27;45386;-51
2022/09/12 03:30:47;;;;;;;;;11.00;10.00;;;;;17.32;69.55;101029.94;5078101;27;45393;-48
2022/09/12 03:33:15;;;;;;;;;12.00;11.00;;;;;17.32;69.41;101025.44;5078310;27;45365;-50
2022/09/12 03:35:42;;;;;;;;;11.67;11.00;;;;;17.31;69.28;101026.44;5078233;27;45311;-49
2022/09/12 03:38:08;;;;;;;;;10.67;9.00;;;;;17.29;69.28;101016.91;5077715;27;47416;-49
2022/09/12 03:40:34;;;;;;;;;15.33;11.00;;;;;17.25;68.68;101020.97;5077500;27;45442;-48
2022/09/12 03:43:00;;;;;;;;;10.33;10.00;;;;;17.20;69.05;101022.34;5078146;27;45301;-53
2022/09/12 03:45:25;;;;;;;;;9.67;9.67;;;;;17.16;69.06;101026.44;5077963;27;45375;-50
2022/09/12 03:47:50;;;;;;;;;12.00;9.00;;;;;17.14;69.07;101019.56;5077605;27;46017;-47
2022/09/12 03:50:16;;;;;;;;;11.67;8.67;;;;;17.11;70.16;101020.78;5077710;27;45297;-48
2022/09/12 03:52:41;;;;;;;;;11.33;9.00;;;;;17.04;69.37;100994.78;5077773;27;45285;-50
2022/09/12 03:55:07;;;;;;;;;10.33;9.67;;;;;17.11;70.08;101010.00;5078280;27;45169;-49
2022/09/12 03:57:32;;;;;;;;;12.00;10.00;;;;;17.09;69.44;101019.28;5077621;27;46195;-52
2022/09/12 03:59:57;;;;;;;;;13.00;10.00;;;;;17.06;70.18;101023.16;5077420;27;45529;-48
2022/09/12 04:02:23;;;;;;;;;12.67;11.67;;;;;17.05;70.48;101013.41;5077708;27;45344;-49
2022/09/12 04:04:48;;;;;;;;;10.33;9.67;;;;;17.00;70.70;101017.69;5077499;27;45271;-47
2022/09/12 04:07:15;;;;;;;;;10.67;10.67;;;;;17.01;70.60;101020.16;5077260;27;45355;-51
2022/09/12 04:09:40;;;;;;;;;11.67;11.00;;;;;16.99;70.88;101022.22;5077357;27;45347;-47
2022/09/12 04:12:06;;;;;;;;;10.00;8.00;;;;;16.98;70.69;101020.56;5077469;27;45270;-47
2022/09/12 04:14:32;;;;;;;;;14.33;10.67;;;;;16.96;70.69;101019.88;5077581;27;45329;-49
2022/09/12 04:16:58;;;;;;;;;12.00;12.00;;;;;16.89;71.01;101017.06;5077059;27;46128;-49
2022/09/12 04:19:24;;;;;;;;;13.00;9.67;;;;;16.92;71.04;101026.63;5077604;27;45238;-53
2022/09/12 04:21:49;;;;;;;;;14.33;11.00;;;;;16.92;71.06;101032.84;5077280;27;45464;-48
2022/09/12 04:24:15;;;;;;;;;13.33;11.00;;;;;16.90;71.20;101024.16;5077834;27;45298;-49
2022/09/12 04:26:40;;;;;;;;;20.00;11.33;;;;;16.93;71.16;101034.50;5077191;27;45294;-48
2022/09/12 04:29:06;;;;;;;;;7.67;7.67;;;;;16.88;70.78;101020.78;5076963;27;45217;-45
2022/09/12 04:31:31;;;;;;;;;10.00;9.33;;;;;16.94;70.50;101027.31;5077226;27;45614;-48
2022/09/12 04:33:59;;;;;;;;;9.67;9.67;;;;;16.93;70.59;101028.31;5077316;27;45409;-51
2022/09/12 04:36:26;;;;;;;;;9.00;8.00;;;;;16.92;70.60;101023.97;5077020;27;47103;-50
2022/09/12 04:38:52;;;;;;;;;8.00;8.00;;;;;16.91;70.58;101030.34;5076858;27;45505;-47
2022/09/12 04:41:24;;;;;;;;;11.33;9.33;;;;;16.90;70.22;101026.84;5076996;27;45337;-46
2022/09/12 04:43:57;;;;;;;;;11.33;11.33;;;;;16.89;70.49;101029.69;5077344;27;45357;-49
2022/09/12 04:46:24;;;;;;;;;16.00;13.33;;;;;16.86;70.57;101027.38;5076723;27;46310;-51
2022/09/12 04:48:50;;;;;;;;;16.33;13.00;;;;;16.83;70.54;101017.81;5076976;27;45357;-49
2022/09/12 04:51:24;;;;;;;;;14.67;10.33;;;;;16.84;70.47;101024.84;5077075;27;45388;-48
2022/09/12 04:53:52;;;;;;;;;8.00;8.00;;;;;16.84;70.71;101027.53;5077288;27;45434;-48
2022/09/12 04:56:19;;;;;;;;;11.33;9.67;;;;;16.83;71.09;101019.69;5076888;27;47400;-52
2022/09/12 04:58:45;;;;;;;;;13.67;12.00;;;;;16.71;70.69;101003.94;5076737;27;45417;-51
2022/09/12 05:01:13;;;;;;;;;13.00;11.00;;;;;16.81;70.63;101010.94;5076953;27;45278;-50
2022/09/12 05:03:42;;;;;;;;;16.67;11.67;;;;;16.79;70.86;101005.75;5076919;27;45339;-49
2022/09/12 05:06:16;;;;;;;;;11.00;10.00;;;;;16.80;70.86;101018.16;5076620;27;46852;-46
2022/09/12 05:08:41;;;;;;;;;11.00;9.33;;;;;16.80;70.98;101014.66;5076670;27;45367;-49
2022/09/12 05:11:10;;;;;;;;;14.00;11.33;;;;;16.76;70.93;101002.59;5076791;27;45446;-50
2022/09/12 05:13:36;;;;;;;;;16.00;12.67;;;;;16.74;70.58;101010.00;5077038;27;45429;-47
2022/09/12 05:16:04;;;;;;;;;15.33;11.67;;;;;16.74;70.60;101004.66;5076437;27;47232;-48
2022/09/12 05:18:34;;;;;;;;;13.67;11.33;;;;;16.74;70.85;101001.97;5076521;27;45385;-46
2022/09/12 05:21:03;;;;;;;;;15.67;11.67;;;;;16.74;71.38;101002.78;5076636;27;45425;-48
2022/09/12 05:23:29;;;;;;;;;12.00;12.00;;;;;16.74;71.42;101001.97;5076703;27;45336;-48
2022/09/12 05:25:56;;;;;;;;;13.67;11.67;;;;;16.73;70.98;101002.94;5076250;27;46372;-52
2022/09/12 05:28:23;;;;;;;;;14.00;12.00;;;;;16.71;71.66;101003.94;5076138;27;45373;-56
2022/09/12 05:31:05;;;;;;;;;17.33;14.00;;;;;16.71;71.39;101009.31;5076230;27;45264;-47
2022/09/12 05:33:33;;;;;;;;;11.00;10.00;;;;;16.72;71.45;101012.84;5076619;27;45452;-50
2022/09/12 05:35:58;;;;;;;;;16.00;13.67;;;;;16.70;71.00;101004.97;5076293;27;46121;-49
2022/09/12 05:38:28;;;;;;;;;13.67;10.00;;;;;16.73;71.34;101005.63;5076042;27;45301;-50
2022/09/12 05:41:02;;;;;;;;;12.33;11.00;;;;;16.76;70.38;101010.66;5076298;27;45297;-49
2022/09/12 05:43:28;;;;;;;;;14.00;11.33;;;;;16.76;71.04;101008.81;5075865;27;45542;-48
2022/09/12 05:46:01;;;;;;;;;14.00;13.00;;;;;16.76;70.52;101008.81;5079408;27;46053;-50
2022/09/12 05:48:27;;;;;;;;;12.67;8.33;;;;;16.79;70.36;101010.31;5079420;28;45262;-51
2022/09/12 05:51:01;;;;;;;;;13.67;12.67;;;;;16.80;71.13;101012.78;5079694;27;45332;-50
2022/09/12 05:53:29;;;;;;;;;11.33;10.33;;;;;16.79;70.17;101010.31;5079518;27;45328;-49
2022/09/12 05:56:06;;;;;;;;;16.00;11.00;;;;;16.85;70.80;101012.25;5079358;27;47157;-50
2022/09/12 05:58:33;;;;;;;;;18.00;13.00;;;;;16.89;70.45;101013.56;5079240;27;45452;-51
2022/09/12 06:01:06;;;;;;;;;12.67;11.33;;;;;16.92;70.72;101016.72;5079513;27;45393;-50
2022/09/12 06:03:33;;;;;;;;;15.33;14.33;;;;;16.95;70.50;101019.06;5079568;27;45353;-51
2022/09/12 06:06:01;;;;;;;;;13.33;12.67;;;;;16.98;70.36;101008.94;5079162;27;45282;-53
2022/09/12 06:08:26;;;;;;;;;12.00;11.33;;;;;17.06;70.60;101014.25;5079284;27;45173;-49
2022/09/12 06:10:58;;;;;;;;;12.33;10.67;;;;;17.11;70.15;101009.19;5079312;27;45961;-51
2022/09/12 06:13:23;;;;;;;;;16.00;13.00;;;;;17.15;69.84;101005.94;5079470;27;45192;-49
2022/09/12 06:15:49;;;;;;;;;19.00;12.67;;;;;17.17;69.93;101000.38;5078835;27;45400;-47
2022/09/12 06:18:14;;;;;;;;;16.00;13.00;;;;;17.20;69.12;101002.69;5079072;27;45485;-50
2022/09/12 06:20:39;;;;;;;;;11.67;11.33;;;;;17.22;69.14;101003.34;5079298;27;45298;-49
2022/09/12 06:23:05;;;;;;;;;12.33;11.00;;;;;17.24;69.05;101008.56;5079329;27;45426;-49
2022/09/12 06:25:30;;;;;;;;;11.33;9.67;;;;;17.28;69.15;101004.47;5078904;27;45929;-52
2022/09/12 06:27:55;;;;;;;;;10.67;10.33;;;;;17.33;69.50;101010.97;5078953;27;45275;-48
2022/09/12 06:30:21;;;;;;;;;11.67;11.67;;;;;17.38;68.86;101010.41;5078975;27;45426;-52
2022/09/12 06:32:46;;;;;;;;;18.00;12.00;;;;;17.44;68.52;101010.50;5079226;27;45393;-51
2022/09/12 06:35:12;;;;;;;;;12.00;11.33;;;;;17.48;68.57;101021.72;5078821;27;46272;-49
2022/09/12 06:37:37;;;;;;;;;10.25;10.00;;;;;17.51;68.53;101020.53;5078790;27;45153;-51
2022/09/12 06:40:03;;;;;;;;;12.00;11.33;;;;;17.50;68.13;101019.69;5078672;27;45595;-49
2022/09/12 06:42:29;;;;;;;;;12.33;11.00;;;;;17.55;67.86;101022.66;5078897;27;45408;-54
2022/09/12 06:44:54;;;;;;;;;13.00;11.00;;;;;17.57;67.96;101019.75;5078684;27;45331;-52
2022/09/12 06:47:20;;;;;;;;;13.33;11.67;;;;;17.62;67.77;101018.22;5078399;27;45371;-52
2022/09/12 06:49:45;;;;;;;;;11.00;11.00;;;;;17.67;67.37;101017.66;5078563;27;45476;-53
2022/09/12 06:52:10;;;;;;;;;12.67;11.67;;;;;17.69;67.27;101034.41;5078863;27;45365;-51
2022/09/12 06:54:35;;;;;;;;;13.67;11.33;;;;;17.68;67.28;101013.94;5077651;27;46031;-51
2022/09/12 06:57:01;;;;;;;;;14.00;11.67;;;;;17.76;67.20;101026.47;5078271;28;45420;-51
2022/09/12 06:59:26;;;;;;;;;10.00;9.00;;;;;17.79;66.87;101024.25;5078493;27;45312;-52
2022/09/12 07:01:52;;;;;;;;;10.75;8.50;;;;;17.84;67.05;101021.00;5078847;27;45335;-52
2022/09/12 07:04:17;;;;;;;;;13.00;12.33;;;;;17.93;67.13;101009.09;5078465;27;45522;-53
2022/09/12 07:06:43;;;;;;;;;16.00;11.67;;;;;18.02;66.71;101012.53;5078487;27;45429;-49
2022/09/12 07:09:12;;;;;;;;;14.25;11.25;;;;;18.10;66.24;101012.41;5078638;27;45425;-51
2022/09/12 07:11:39;;;;;;;;;13.00;11.50;;;;;18.16;65.97;101017.03;5078297;27;45453;-53
2022/09/12 07:14:08;;;;;;;;;14.00;9.25;;;;;18.25;65.72;101004.31;5078322;27;46168;-52
2022/09/12 07:16:36;;;;;;;;;11.50;9.00;;;;;18.39;65.60;101006.09;5078078;27;45386;-51
2022/09/12 07:19:04;;;;;;;;;12.50;12.25;;;;;18.57;65.16;101003.78;5078436;27;45203;-53
2022/09/12 07:21:29;;;;;;;;;11.75;11.00;;;;;18.89;64.22;100999.75;5093942;27;45400;-53
2022/09/12 07:23:59;;;;;;;;;16.75;11.25;;;;;20.30;61.20;101015.69;5077709;27;46090;-53
2022/09/12 07:26:26;;;;;;;;;9.25;9.25;;;;;21.79;56.68;101017.97;5078089;27;45289;-53
2022/09/12 07:28:53;;;;;;;;;11.00;11.00;;;;;22.95;53.87;101000.63;5078369;27;45361;-52
2022/09/12 07:31:21;;;;;;;;;11.25;9.00;;;;;23.26;52.56;101000.56;5078020;27;45606;-51
2022/09/12 07:33:46;;;;;;;;;10.50;8.50;;;;;23.34;52.13;100996.69;5077821;27;46289;-51
2022/09/12 07:36:15;;;;;;;;;16.00;11.25;;;;;23.28;54.03;101003.03;5077820;27;45348;-49
2022/09/12 07:38:41;;;;;;;;;11.40;10.80;;;;;23.36;52.02;100998.16;5078070;27;45372;-53
2022/09/12 07:41:27;;;;;;;;;11.00;10.00;;;;;23.60;52.06;100999.16;5077951;27;45297;-53
2022/09/12 07:43:55;;;;;;;;;12.60;12.00;;;;;23.77;51.03;100995.84;5077893;27;45320;-54
2022/09/12 07:46:21;;;;;;;;;9.60;9.60;;;;;23.77;50.83;101004.00;5077365;27;45411;-55
2022/09/12 07:48:52;;;;;;;;;11.00;9.60;;;;;23.59;51.59;100997.47;5078048;27;45373;-52
2022/09/12 07:51:18;;;;;;;;;11.40;10.00;;;;;23.42;52.63;100999.13;5078291;27;45284;-54
2022/09/12 07:53:44;;;;;;;;;11.00;11.00;;;;;23.24;52.80;100994.50;5077561;27;46371;-54
2022/09/12 07:56:10;;;;;;;;;11.40;11.20;;;;;23.04;52.83;100992.00;5048565;28;45571;-53
2022/09/12 07:58:37;;;;;;;;;11.00;11.00;;;;;22.90;52.86;101010.28;4974136;28;45445;-52
2022/09/12 08:01:04;;;;;;;;;12.00;11.00;;;;;23.25;52.41;101003.47;5012693;28;45333;-51
2022/09/12 08:03:30;;;;;;;;;8.40;8.40;;;;;25.05;48.78;101000.03;5077282;27;46002;-50
2022/09/12 08:06:06;;;;;;;;;10.50;9.50;;;;;26.93;45.75;100989.38;5076832;27;45382;-54
2022/09/12 08:08:31;;;;;;;;;11.60;9.40;;;;;28.31;41.18;100978.28;5077348;27;45268;-49
2022/09/12 08:11:01;;;;;;;;;9.75;8.00;;;;;29.42;40.00;100989.59;5077786;27;45420;-49
2022/09/12 08:13:28;;;;;;;;;9.40;7.20;;;;;30.53;38.11;100985.56;5076846;27;46525;-53
2022/09/12 08:16:03;;;;;;;;;5.60;5.00;;;;;31.51;36.05;100979.66;5076682;27;45193;-51
2022/09/12 08:18:31;;;;;;;;;9.20;7.60;;;;;32.28;35.27;100982.06;5076990;27;45299;-50
2022/09/12 08:21:20;;;;;;;;;10.40;7.60;;;;;32.77;37.02;100972.84;5076898;27;45247;-54
2022/09/12 08:23:46;;;;;;;;;8.80;8.80;;;;;33.05;31.93;100987.78;5076629;27;45360;-51
2022/09/12 08:26:12;;;;;;;;;9.00;9.00;;;;;33.41;32.69;100981.84;5076984;27;45714;-52
2022/09/12 08:28:39;;;;;;;;;8.00;8.00;;;;;33.72;31.11;100993.38;5077324;27;45305;-51
2022/09/12 08:31:12;;;;;;;;;7.00;7.00;;;;;34.33;31.86;100988.94;5077035;27;45299;-50
2022/09/12 08:33:38;;;;;;;;;9.60;8.20;;;;;34.84;30.19;100977.84;5076602;27;45440;-53
2022/09/12 08:36:12;;;;;;;;;6.00;6.00;;;;;35.34;29.99;100975.28;5077146;27;45351;-50
2022/09/12 08:38:40;;;;;;;;;6.40;5.40;;;;;35.95;29.98;100985.06;5077004;28;45432;-53
2022/09/12 08:41:29;;;;;;;;;9.00;7.00;;;;;36.30;27.96;100981.81;5077109;27;45588;-50
2022/09/12 08:44:16;;;;;;;;;5.60;5.60;;;;;34.47;31.13;100981.50;5076702;27;45472;-51
2022/09/12 08:47:13;;;;;;;;;5.80;5.80;;;;;34.42;29.98;100976.88;5076611;27;45502;-53
2022/09/12 08:49:57;;;;;;;;;9.60;6.80;;;;;34.53;29.59;100980.34;5014139;28;45464;-51
2022/09/12 08:52:25;;;;;;;;;8.40;6.80;;;;;35.18;28.96;100973.94;4968754;28;45515;-52
2022/09/12 08:54:51;;;;;;;;;7.00;4.00;;;;;35.30;29.97;100977.03;4913530;28;45421;-51
2022/09/12 08:57:17;;;;;;;;;5.80;5.80;;;;;35.25;28.82;100980.72;4913839;28;45246;-51
2022/09/12 08:59:44;;;;;;;;;7.00;6.25;;;;;35.11;28.63;100940.38;4913953;28;45306;-53
2022/09/12 09:02:52;;;;;;;;;5.60;5.40;;;;;35.14;29.16;100984.78;4914096;28;45612;-52
2022/09/12 09:05:43;;;;;;;;;5.80;5.80;;;;;34.87;31.33;100984.75;4913614;28;46040;-51
2022/09/12 09:08:11;;;;;;;;;9.40;6.80;;;;;34.90;30.98;100978.59;4913754;28;45444;-52
2022/09/12 09:10:45;;;;;;;;;9.40;8.00;;;;;35.02;29.60;100973.44;4913993;28;45557;-52
2022/09/12 09:14:46;;;;;;;;;6.80;6.80;;;;;35.10;29.34;100969.97;4913786;28;45445;-52
2022/09/12 09:16:17;;;;;;;;;7.60;6.00;;;;;35.12;29.76;100964.13;4913672;28;45360;-54
2022/09/12 09:18:47;;;;;;;;;7.00;6.00;;;;;35.29;30.00;100961.56;4914293;28;45365;-52
2022/09/12 09:21:28;;;;;;;;;5.80;4.60;;;;;35.57;32.82;100954.09;4916837;28;45306;-53
2022/09/12 09:24:00;;;;;;;;;4.80;4.80;;;;;35.76;31.08;100959.47;4916919;28;45522;-54
2022/09/12 09:26:58;;;;;;;;;5.20;5.20;;;;;36.12;28.52;100944.84;4975879;28;45400;-54
2022/09/12 09:29:29;;;;;;;;;7.00;4.00;;;;;36.73;28.07;100935.81;4976649;27;45307;-51
2022/09/12 09:31:59;;;;;;;;;4.40;3.60;;;;;37.65;26.05;100943.53;4976717;28;45359;-53
2022/09/12 09:34:30;;;;;;;;;5.60;4.40;;;;;39.98;23.09;100951.53;4976967;28;45451;-52
2022/09/12 09:37:14;;;;;;;;;3.00;3.00;;;;;42.36;21.55;100949.47;4976524;28;45383;-54
2022/09/12 09:39:57;;;;;;;;;6.80;5.00;;;;;44.02;22.49;100941.91;4976376;28;45341;-51
2022/09/12 09:42:43;;;;;;;;;4.00;4.00;;;;;43.90;19.71;100936.44;4976684;28;45335;-53
2022/09/12 09:45:18;;;;;;;;;5.00;3.00;;;;;45.47;17.37;100930.81;4976863;28;45442;-54
2022/09/12 09:48:09;;;;;;;;;6.80;3.80;;;;;46.77;17.60;100935.56;4976374;28;45723;-54
2022/09/12 09:50:37;;;;;;;;;3.00;2.80;;;;;47.79;17.42;100935.06;5036669;28;46647;-54
2022/09/12 09:53:08;;;;;;;;;3.80;3.80;;;;;48.22;17.72;100930.38;5036776;28;45436;-54
2022/09/12 09:55:39;;;;;;;;;2.00;2.00;;;;;48.90;14.86;100919.19;5037288;28;45367;-54
2022/09/12 09:58:05;;;;;;;;;5.00;3.40;;;;;49.14;15.36;100926.84;5036759;28;45384;-54
2022/09/12 10:00:33;;;;;;;;;2.00;1.75;;;;;48.49;15.57;100919.56;5036399;28;45415;-55
2022/09/12 10:03:03;;;;;;;;;2.60;2.60;;;;;48.51;14.96;100919.13;5036587;28;45403;-54
2022/09/12 10:05:31;;;;;;;;;3.00;1.80;;;;;49.29;13.89;100915.47;5036774;28;45414;-53
2022/09/12 10:07:57;;;;;;;;;3.40;3.20;;;;;49.97;14.51;100918.88;5036294;28;46252;-55
2022/09/12 10:10:24;;;;;;;;;2.25;2.25;;;;;50.49;12.90;100915.28;5036124;28;45424;-54
2022/09/12 10:12:49;;;;;;;;;2.80;2.40;;;;;50.46;12.69;100907.66;5036357;28;45588;-54
2022/09/12 10:15:25;;;;;;;;;2.00;2.00;;;;;51.64;13.48;100905.28;5036720;28;45420;-54
2022/09/12 10:17:50;;;;;;;;;1.60;1.60;;;;;52.08;12.96;100894.13;5036355;28;46118;-54
2022/09/12 10:20:39;;;;;;;;;1.25;1.25;;;;;51.80;14.17;100896.13;5035808;28;45287;-54
2022/09/12 10:23:29;;;;;;;;;2.50;2.50;;;;;52.32;11.99;100903.50;5036182;28;45387;-54
2022/09/12 10:25:59;;;;;;;;;1.50;1.50;;;;;52.70;12.88;100891.94;5036476;28;45471;-54
2022/09/12 10:28:36;;;;;;;;;2.75;2.25;;;;;53.14;11.32;100889.91;4984189;28;46226;-55
2022/09/12 10:31:02;;;;;;;;;2.25;1.50;;;;;53.50;11.79;100878.63;4976981;28;45385;-55
2022/09/12 10:33:28;;;;;;;;;0.50;0.50;;;;;52.87;11.10;100885.13;4975894;28;45348;-55
2022/09/12 10:35:54;;;;;;;;;3.25;1.25;;;;;51.85;11.79;100889.19;4976179;28;45386;-55
2022/09/12 10:38:27;;;;;;;;;1.00;1.00;;;;;51.95;11.73;100885.41;4975801;28;46203;-56
2022/09/12 10:41:02;;;;;;;;;2.50;1.25;;;;;52.35;12.12;100885.63;4975614;28;45381;-54
2022/09/12 10:43:41;;;;;;;;;1.75;1.75;;;;;52.39;12.24;100880.69;4975917;28;45330;-52
2022/09/12 10:46:18;;;;;;;;;1.00;1.00;;;;;51.05;12.56;100885.69;4976062;28;45366;-55
2022/09/12 10:48:49;;;;;;;;;2.00;1.25;;;;;51.77;11.53;100888.47;4975806;28;46142;-54
2022/09/12 10:51:23;;;;;;;;;1.00;1.00;;;;;51.45;11.70;100888.88;4976970;28;45333;-53
2022/09/12 10:53:50;;;;;;;;;1.75;1.75;;;;;51.41;11.91;100879.59;4975903;28;45571;-54
2022/09/12 10:56:19;;;;;;;;;2.25;0.25;;;;;51.21;11.52;100878.66;4975986;28;45429;-55
2022/09/12 10:59:12;;;;;;;;;3.00;3.00;;;;;49.55;12.77;100871.81;5008296;28;46632;-55
2022/09/12 11:01:44;;;;;;;;;2.80;2.80;;;;;48.96;12.61;100883.66;5078370;27;45415;-54
2022/09/12 11:04:31;;;;;;;;;3.80;3.80;;;;;49.10;13.08;100869.50;5078302;27;45449;-53
2022/09/12 11:07:11;;;;;;;;;4.40;2.40;;;;;50.00;13.65;100875.63;5078607;27;45441;-54
2022/09/12 11:09:49;;;;;;;;;1.00;1.00;;;;;50.44;13.23;100874.09;5078088;27;46085;-53
2022/09/12 11:12:26;;;;;;;;;3.00;3.00;;;;;50.22;12.32;100864.16;5078084;27;45264;-53
2022/09/12 11:15:18;;;;;;;;;2.25;0.75;;;;;50.60;12.80;100876.41;5057868;27;46330;-54
2022/09/12 11:17:50;;;;;;;;;2.60;2.60;;;;;50.95;11.29;100869.63;4976873;27;45349;-54
2022/09/12 11:20:51;;;;;;;;;2.00;1.00;;;;;51.15;12.53;100872.63;4975254;28;46585;-54
2022/09/12 11:23:28;;;;;;;;;2.80;2.20;;;;;51.26;11.66;100879.00;5035117;28;45325;-52
2022/09/12 11:26:11;;;;;;;;;0.75;0.75;;;;;51.56;11.68;100866.09;5035290;28;45485;-53
2022/09/12 11:28:55;;;;;;;;;2.50;1.25;;;;;51.37;11.60;100867.50;5019106;28;45311;-54
2022/09/12 11:31:41;;;;;;;;;1.50;1.50;;;;;51.78;11.98;100872.25;5032634;28;46188;-51
2022/09/12 11:34:09;;;;;;;;;0.25;0.25;;;;;52.03;11.10;100861.38;5034946;28;45447;-52
2022/09/12 11:36:58;;;;;;;;;1.25;1.25;;;;;51.92;12.06;100857.91;5034896;28;45436;-52
2022/09/12 11:39:38;;;;;;;;;1.00;1.00;;;;;51.95;11.03;100839.22;5034942;28;45478;-53